createdAt,value
2018-02-27T00:00:11.132Z,68.51
2018-02-27T00:02:38.610Z,69.71
2018-02-27T00:05:06.262Z,68.95
2018-02-27T00:07:34.049Z,68.12
2018-02-27T00:10:01.518Z,67.53
2018-02-27T00:12:28.990Z,67.35
2018-02-27T00:14:57.116Z,67.50
2018-02-27T00:17:24.596Z,69.40
2018-02-27T00:19:52.053Z,68.86
2018-02-27T00:22:19.805Z,68.66
2018-02-27T00:24:47.270Z,68.47
2018-02-27T00:27:14.730Z,68.02
2018-02-27T00:29:43.426Z,68.03
2018-02-27T00:32:10.905Z,68.43
2018-02-27T00:34:38.371Z,68.66
2018-02-27T00:37:07.025Z,69.22
2018-02-27T00:39:34.493Z,67.48
2018-02-27T00:42:01.958Z,67.98
2018-02-27T00:44:30.021Z,68.29
2018-02-27T00:46:57.484Z,68.01
2018-02-27T00:49:24.946Z,68.40
2018-02-27T00:51:52.697Z,68.78
2018-02-27T00:54:20.167Z,68.55
2018-02-27T00:56:47.629Z,67.28
2018-02-27T00:59:15.415Z,68.87
2018-02-27T01:01:42.885Z,67.77
2018-02-27T01:04:10.354Z,67.74
2018-02-27T01:06:38.088Z,67.65
2018-02-27T01:09:05.551Z,68.83
2018-02-27T01:11:33.024Z,68.39
2018-02-27T01:14:00.736Z,67.93
2018-02-27T01:16:28.193Z,67.92
2018-02-27T01:18:55.660Z,68.47
2018-02-27T01:21:23.296Z,68.65
2018-02-27T01:23:50.756Z,67.30
2018-02-27T01:26:18.368Z,69.36
2018-02-27T01:28:46.145Z,67.41
2018-02-27T01:31:16.116Z,67.43
2018-02-27T01:33:43.576Z,68.03
2018-02-27T01:36:11.315Z,68.53
2018-02-27T01:38:38.786Z,68.06
2018-02-27T01:41:06.252Z,67.46
2018-02-27T01:43:34.581Z,67.95
2018-02-27T01:46:02.045Z,66.73
2018-02-27T01:48:29.512Z,68.27
2018-02-27T01:51:09.201Z,67.24
2018-02-27T01:53:37.037Z,67.56
2018-02-27T01:56:04.496Z,68.16
2018-02-27T01:58:32.173Z,68.48
2018-02-27T02:00:59.624Z,68.17
2018-02-27T02:03:27.088Z,67.94
2018-02-27T02:05:54.941Z,68.84
2018-02-27T02:08:22.412Z,69.23
2018-02-27T02:10:49.877Z,68.86
2018-02-27T02:13:17.629Z,68.99
2018-02-27T02:15:45.106Z,70.08
2018-02-27T02:18:12.581Z,69.35
2018-02-27T02:20:40.309Z,70.63
2018-02-27T02:23:07.774Z,69.46
2018-02-27T02:25:35.242Z,70.05
2018-02-27T02:28:02.984Z,69.82
2018-02-27T02:30:30.460Z,70.90
2018-02-27T02:32:58.298Z,69.82
2018-02-27T02:35:26.295Z,70.28
2018-02-27T02:37:53.758Z,69.69
2018-02-27T02:40:21.221Z,69.84
2018-02-27T02:42:48.958Z,69.45
2018-02-27T02:45:16.414Z,70.29
2018-02-27T02:47:43.878Z,70.41
2018-02-27T02:50:11.670Z,70.74
2018-02-27T02:52:39.137Z,69.86
2018-02-27T02:55:06.598Z,70.49
2018-02-27T02:57:34.349Z,70.65
2018-02-27T03:00:01.818Z,69.62
2018-02-27T03:02:29.279Z,70.63
2018-02-27T03:04:57.349Z,69.91
2018-02-27T03:07:24.812Z,70.23
2018-02-27T03:09:52.275Z,70.18
2018-02-27T03:12:20.033Z,69.74
2018-02-27T03:14:47.500Z,69.86
2018-02-27T03:17:14.961Z,69.45
2018-02-27T03:19:42.722Z,70.03
2018-02-27T03:22:10.203Z,68.86
2018-02-27T03:24:37.661Z,69.88
2018-02-27T03:27:05.404Z,69.15
2018-02-27T03:29:32.885Z,69.30
2018-02-27T03:32:00.345Z,68.67
2018-02-27T03:34:29.325Z,69.06
2018-02-27T03:36:56.788Z,69.94
2018-02-27T03:39:24.257Z,69.50
2018-02-27T03:41:52.025Z,69.55
2018-02-27T03:44:19.498Z,69.46
2018-02-27T03:46:46.957Z,69.04
2018-02-27T03:49:14.700Z,69.19
2018-02-27T03:51:42.165Z,69.11
2018-02-27T03:54:09.628Z,69.94
2018-02-27T03:56:37.384Z,69.05
2018-02-27T03:59:04.873Z,69.25
2018-02-27T04:01:32.332Z,69.40
2018-02-27T04:04:00.081Z,70.41
2018-02-27T04:06:27.546Z,70.21
2018-02-27T04:08:55.373Z,70.82
2018-02-27T04:11:23.070Z,69.61
2018-02-27T04:13:50.532Z,69.23
2018-02-27T04:16:18.018Z,69.65
2018-02-27T04:18:46.059Z,68.95
2018-02-27T04:21:13.526Z,69.06
2018-02-27T04:23:40.994Z,69.13
2018-02-27T04:26:08.748Z,69.77
2018-02-27T04:28:36.202Z,68.82
2018-02-27T04:31:03.666Z,69.19
2018-02-27T04:33:31.454Z,69.11
2018-02-27T04:35:59.597Z,68.86
2018-02-27T04:38:27.053Z,68.87
2018-02-27T04:40:54.737Z,68.40
2018-02-27T04:43:22.205Z,69.41
2018-02-27T04:45:49.666Z,71.22
2018-02-27T04:48:17.726Z,69.08
2018-02-27T04:50:45.189Z,69.50
2018-02-27T04:53:12.654Z,67.93
2018-02-27T04:55:40.379Z,68.82
2018-02-27T04:58:07.829Z,69.01
2018-02-27T05:00:35.297Z,68.48
2018-02-27T05:03:03.094Z,68.84
2018-02-27T05:05:30.556Z,68.54
2018-02-27T05:07:58.021Z,68.11
2018-02-27T05:10:25.790Z,68.09
2018-02-27T05:12:53.257Z,68.81
2018-02-27T05:15:20.728Z,69.30
2018-02-27T05:17:48.480Z,69.50
2018-02-27T05:20:15.945Z,68.46
2018-02-27T05:22:43.433Z,68.57
2018-02-27T05:25:11.464Z,68.22
2018-02-27T05:27:38.930Z,79.26
2018-02-27T05:30:06.392Z,70.09
2018-02-27T05:32:34.481Z,68.01
2018-02-27T05:35:01.950Z,68.11
2018-02-27T05:37:29.460Z,67.97
2018-02-27T05:39:57.156Z,67.63
2018-02-27T05:42:24.621Z,68.24
2018-02-27T05:44:52.094Z,68.47
2018-02-27T05:47:19.834Z,68.71
2018-02-27T05:49:47.317Z,68.68
2018-02-27T05:52:14.787Z,68.52
2018-02-27T05:54:42.541Z,68.40
2018-02-27T05:57:10.000Z,68.22
2018-02-27T05:59:37.453Z,68.70
2018-02-27T06:02:05.212Z,69.03
2018-02-27T06:04:32.688Z,68.79
2018-02-27T06:07:00.151Z,68.78
2018-02-27T06:09:27.900Z,69.68
2018-02-27T06:11:55.353Z,68.72
2018-02-27T06:14:22.816Z,68.29
2018-02-27T06:16:50.653Z,68.85
2018-02-27T06:19:18.272Z,68.11
2018-02-27T06:21:45.737Z,68.79
2018-02-27T06:24:13.588Z,68.14
2018-02-27T06:26:41.047Z,68.68
2018-02-27T06:29:08.515Z,67.88
2018-02-27T06:31:36.580Z,68.69
2018-02-27T06:34:04.050Z,67.57
2018-02-27T06:36:31.514Z,67.28
2018-02-27T06:38:59.894Z,67.50
2018-02-27T06:41:27.383Z,66.97
2018-02-27T06:43:54.840Z,67.84
2018-02-27T06:46:22.566Z,68.26
2018-02-27T06:48:50.033Z,67.81
2018-02-27T06:51:17.514Z,67.03
2018-02-27T06:53:45.242Z,67.74
2018-02-27T06:56:12.713Z,67.17
2018-02-27T06:58:40.173Z,67.47
2018-02-27T07:01:07.861Z,67.17
2018-02-27T07:03:35.341Z,66.72
2018-02-27T07:06:02.809Z,67.47
2018-02-27T07:08:30.490Z,67.03
2018-02-27T07:10:57.956Z,66.70
2018-02-27T07:13:25.416Z,66.32
2018-02-27T07:15:53.203Z,66.08
2018-02-27T07:18:20.659Z,64.72
2018-02-27T07:20:48.208Z,65.43
2018-02-27T07:23:15.989Z,65.44
2018-02-27T07:25:43.447Z,65.35
2018-02-27T07:28:10.906Z,64.25
2018-02-27T07:30:38.634Z,65.96
2018-02-27T07:33:06.098Z,63.77
2018-02-27T07:35:33.562Z,63.11
2018-02-27T07:38:01.369Z,63.94
2018-02-27T07:40:30.747Z,64.97
2018-02-27T07:42:58.214Z,64.44
2018-02-27T07:45:26.038Z,63.48
2018-02-27T07:47:53.509Z,63.53
2018-02-27T07:50:20.968Z,63.23
2018-02-27T07:52:49.516Z,63.13
2018-02-27T07:55:16.982Z,62.49
2018-02-27T07:57:44.442Z,62.78
2018-02-27T08:00:12.834Z,63.30
2018-02-27T08:02:40.312Z,62.11
2018-02-27T08:05:07.781Z,62.24
2018-02-27T08:07:35.818Z,62.40
2018-02-27T08:10:03.297Z,62.90
2018-02-27T08:12:30.773Z,60.77
2018-02-27T08:14:58.771Z,61.68
2018-02-27T08:17:26.233Z,62.05
2018-02-27T08:19:53.696Z,61.70
2018-02-27T08:22:21.485Z,60.85
2018-02-27T08:24:48.954Z,62.64
2018-02-27T08:27:16.408Z,61.31
2018-02-27T08:29:44.173Z,61.90
2018-02-27T08:32:11.637Z,61.58
2018-02-27T08:34:39.123Z,60.25
2018-02-27T08:37:06.840Z,60.60
2018-02-27T08:39:34.315Z,61.93
2018-02-27T08:42:02.774Z,60.56
2018-02-27T08:44:30.414Z,59.86
2018-02-27T08:46:57.885Z,60.17
2018-02-27T08:49:25.391Z,59.53
2018-02-27T08:51:53.493Z,59.95
2018-02-27T08:54:21.001Z,60.68
2018-02-27T08:56:48.464Z,61.21
2018-02-27T08:59:16.453Z,59.81
2018-02-27T09:01:43.919Z,58.43
2018-02-27T09:04:11.449Z,58.99
2018-02-27T09:06:39.149Z,58.55
2018-02-27T09:09:06.636Z,57.84
2018-02-27T09:11:34.113Z,56.32
2018-02-27T09:14:01.817Z,57.97
2018-02-27T09:16:29.286Z,56.61
2018-02-27T09:18:56.753Z,56.39
2018-02-27T09:21:24.817Z,57.61
2018-02-27T09:23:52.284Z,58.02
2018-02-27T09:26:19.749Z,57.25
2018-02-27T09:28:47.512Z,56.91
2018-02-27T09:31:14.978Z,57.23
2018-02-27T09:33:42.446Z,58.33
2018-02-27T09:36:10.524Z,57.45
2018-02-27T09:38:37.991Z,58.02
2018-02-27T09:41:05.448Z,57.51
2018-02-27T09:43:33.528Z,57.38
2018-02-27T09:46:01.059Z,56.65
2018-02-27T09:48:28.526Z,57.05
2018-02-27T09:50:56.504Z,55.82
2018-02-27T09:53:23.967Z,56.12
2018-02-27T09:55:51.430Z,54.58
2018-02-27T09:58:19.491Z,57.06
2018-02-27T10:00:46.959Z,54.50
2018-02-27T10:03:14.438Z,52.12
2018-02-27T10:05:42.490Z,52.29
2018-02-27T10:08:11.124Z,52.00
2018-02-27T10:10:38.601Z,50.01
2018-02-27T10:13:06.394Z,50.77
2018-02-27T10:15:33.866Z,52.26
2018-02-27T10:18:01.337Z,52.55
2018-02-27T10:20:29.692Z,54.64
2018-02-27T10:22:57.162Z,55.08
2018-02-27T10:25:24.636Z,52.42
2018-02-27T10:27:52.701Z,55.64
2018-02-27T10:30:20.157Z,55.27
2018-02-27T10:32:47.625Z,57.05
2018-02-27T10:35:15.392Z,53.36
2018-02-27T10:37:42.854Z,54.29
2018-02-27T10:40:10.341Z,53.00
2018-02-27T10:42:38.072Z,54.18
2018-02-27T10:45:05.967Z,53.27
2018-02-27T10:47:33.445Z,53.65
2018-02-27T10:50:01.365Z,52.08
2018-02-27T10:52:28.834Z,50.97
2018-02-27T10:54:56.328Z,51.82
2018-02-27T10:57:24.069Z,51.87
2018-02-27T10:59:51.536Z,52.31
2018-02-27T11:09:02.435Z,54.09
2018-02-27T11:11:29.882Z,52.96
2018-02-27T11:13:57.349Z,51.22
2018-02-27T11:16:25.332Z,53.22
2018-02-27T11:18:52.801Z,53.91
2018-02-27T11:21:20.281Z,51.46
2018-02-27T11:23:48.025Z,53.01
2018-02-27T11:26:15.508Z,52.42
2018-02-27T11:28:42.969Z,51.01
2018-02-27T11:31:10.825Z,50.59
2018-02-27T11:33:38.293Z,51.39
2018-02-27T11:36:05.756Z,52.24
2018-02-27T11:38:33.701Z,50.08
2018-02-27T11:41:01.187Z,49.42
2018-02-27T11:43:28.657Z,48.69
2018-02-27T11:45:57.540Z,48.84
2018-02-27T11:48:24.998Z,48.79
2018-02-27T11:50:52.466Z,48.82
2018-02-27T11:53:20.305Z,51.25
2018-02-27T11:55:47.771Z,49.17
2018-02-27T11:58:15.236Z,49.85
2018-02-27T12:00:42.986Z,49.95
2018-02-27T12:03:10.460Z,51.56
2018-02-27T12:05:38.216Z,50.63
2018-02-27T12:08:06.253Z,49.48
2018-02-27T12:10:33.717Z,47.75
2018-02-27T12:13:01.187Z,48.56
2018-02-27T12:15:28.783Z,49.10
2018-02-27T12:17:56.241Z,48.57
2018-02-27T12:20:23.716Z,49.61
2018-02-27T12:22:51.348Z,48.86
2018-02-27T12:25:18.815Z,49.49
2018-02-27T12:27:46.295Z,50.61
2018-02-27T12:30:14.098Z,50.93
2018-02-27T12:32:41.518Z,50.59
2018-02-27T12:35:08.985Z,50.86
2018-02-27T12:37:37.035Z,51.62
2018-02-27T12:40:04.500Z,49.66
2018-02-27T12:42:31.969Z,50.24
2018-02-27T12:44:59.753Z,50.76
2018-02-27T12:47:27.886Z,50.60
2018-02-27T12:49:55.357Z,51.51
2018-02-27T12:52:23.343Z,51.35
2018-02-27T12:54:50.821Z,51.95
2018-02-27T12:57:18.293Z,51.74
2018-02-27T12:59:46.034Z,52.54
2018-02-27T13:02:13.496Z,50.95
2018-02-27T13:04:40.974Z,51.08
2018-02-27T13:07:08.712Z,51.38
2018-02-27T13:09:36.181Z,53.71
2018-02-27T13:12:03.652Z,53.29
2018-02-27T13:14:33.004Z,53.70
2018-02-27T13:17:00.469Z,53.17
2018-02-27T13:19:27.929Z,52.97
2018-02-27T13:21:55.624Z,53.54
2018-02-27T13:24:23.089Z,53.42
2018-02-27T13:26:50.549Z,53.18
2018-02-27T13:29:20.146Z,53.13
2018-02-27T13:31:47.620Z,52.81
2018-02-27T13:34:15.085Z,53.58
2018-02-27T13:36:42.847Z,50.94
2018-02-27T13:39:10.310Z,51.10
2018-02-27T13:41:37.778Z,52.20
2018-02-27T13:44:05.536Z,53.05
2018-02-27T13:46:33.018Z,51.97
2018-02-27T13:49:04.198Z,52.71
2018-02-27T13:51:30.985Z,51.20
2018-02-27T13:53:58.450Z,51.72
2018-02-27T13:56:25.905Z,52.31
2018-02-27T13:58:53.671Z,51.50
2018-02-27T14:01:21.151Z,50.97
2018-02-27T14:03:48.608Z,50.87
2018-02-27T14:06:16.344Z,51.80
2018-02-27T14:08:43.804Z,51.68
2018-02-27T14:11:11.277Z,52.37
2018-02-27T14:13:39.051Z,50.75
2018-02-27T14:16:06.518Z,51.20
2018-02-27T14:18:33.984Z,50.71
2018-02-27T14:21:01.667Z,51.33
2018-02-27T14:23:29.138Z,52.65
2018-02-27T14:25:56.596Z,52.01
2018-02-27T14:28:24.423Z,52.95
2018-02-27T14:30:51.901Z,52.16
2018-02-27T14:33:19.382Z,52.93
2018-02-27T14:35:47.112Z,52.68
2018-02-27T14:38:14.594Z,52.67
2018-02-27T14:40:42.069Z,52.85
2018-02-27T14:43:10.112Z,52.17
2018-02-27T14:45:37.574Z,51.60
2018-02-27T14:48:05.041Z,52.59
2018-02-27T14:50:33.397Z,53.53
2018-02-27T14:53:00.867Z,52.00
2018-02-27T14:55:28.329Z,52.57
2018-02-27T14:57:56.082Z,51.92
2018-02-27T15:00:23.553Z,52.12
2018-02-27T15:02:51.017Z,52.96
2018-02-27T15:05:20.921Z,52.96
2018-02-27T15:07:48.392Z,54.00
2018-02-27T15:10:15.860Z,53.10
2018-02-27T15:12:43.613Z,53.58
2018-02-27T15:15:11.086Z,52.83
2018-02-27T15:17:38.551Z,53.29
2018-02-27T15:20:06.298Z,54.28
2018-02-27T15:22:33.770Z,53.94
2018-02-27T15:25:01.254Z,54.57
2018-02-27T15:27:29.287Z,55.17
2018-02-27T15:29:56.756Z,56.33
2018-02-27T15:32:24.233Z,56.80
2018-02-27T15:34:51.990Z,55.16
2018-02-27T15:37:19.474Z,54.65
2018-02-27T15:39:46.941Z,55.49
2018-02-27T15:42:14.630Z,54.98
2018-02-27T15:44:42.097Z,55.10
2018-02-27T15:47:09.575Z,55.20
2018-02-27T15:49:37.673Z,55.73
2018-02-27T15:52:05.803Z,56.55
2018-02-27T15:54:33.266Z,56.29
2018-02-27T15:57:00.960Z,56.41
2018-02-27T15:59:28.426Z,56.52
2018-02-27T16:01:55.894Z,57.01
2018-02-27T16:04:23.646Z,55.90
2018-02-27T16:06:51.116Z,56.45
2018-02-27T16:09:18.570Z,56.83
2018-02-27T16:11:46.344Z,57.58
2018-02-27T16:14:13.821Z,57.43
2018-02-27T16:16:41.296Z,57.92
2018-02-27T16:19:09.346Z,57.53
2018-02-27T16:21:36.814Z,58.52
2018-02-27T16:24:04.306Z,57.75
2018-02-27T16:26:32.313Z,58.12
2018-02-27T16:28:59.789Z,58.74
2018-02-27T16:31:27.261Z,58.71
2018-02-27T16:33:55.005Z,58.66
2018-02-27T16:36:22.469Z,59.05
2018-02-27T16:38:49.933Z,59.84
2018-02-27T16:41:17.700Z,59.27
2018-02-27T16:43:45.244Z,59.41
2018-02-27T16:46:13.102Z,59.12
2018-02-27T16:48:40.987Z,60.32
2018-02-27T16:51:08.679Z,59.33
2018-02-27T16:53:37.214Z,58.91
2018-02-27T16:56:05.262Z,59.09
2018-02-27T16:58:32.903Z,59.51
2018-02-27T17:01:00.389Z,59.22
2018-02-27T17:03:28.573Z,58.60
2018-02-27T17:05:56.037Z,59.16
2018-02-27T17:08:23.538Z,59.05
2018-02-27T17:10:51.264Z,57.95
2018-02-27T17:13:18.757Z,58.05
2018-02-27T17:15:46.222Z,58.45
2018-02-27T17:18:14.209Z,58.31
2018-02-27T17:20:41.776Z,58.61
2018-02-27T17:23:09.460Z,58.52
2018-02-27T17:25:37.455Z,57.82
2018-02-27T17:28:04.933Z,58.18
2018-02-27T17:30:32.413Z,58.12
2018-02-27T17:33:00.266Z,58.18
2018-02-27T17:35:27.783Z,58.26
2018-02-27T17:37:55.279Z,57.41
2018-02-27T17:40:23.230Z,57.99
2018-02-27T17:42:50.720Z,58.23
2018-02-27T17:45:18.184Z,58.16
2018-02-27T17:47:46.798Z,58.19
2018-02-27T17:50:14.294Z,57.40
2018-02-27T17:52:41.772Z,57.93
2018-02-27T17:55:09.819Z,58.57
2018-02-27T17:57:37.339Z,59.12
2018-02-27T18:00:04.863Z,58.37
2018-02-27T18:02:32.795Z,58.67
2018-02-27T18:05:01.207Z,58.00
2018-02-27T18:07:28.974Z,59.12
2018-02-27T18:09:57.051Z,58.72
2018-02-27T18:12:24.522Z,59.01
2018-02-27T18:14:51.987Z,58.48
2018-02-27T18:17:19.720Z,58.50
2018-02-27T18:19:47.244Z,58.51
2018-02-27T18:22:15.001Z,58.91
2018-02-27T18:24:42.831Z,58.89
2018-02-27T18:27:10.399Z,58.55
2018-02-27T18:29:37.926Z,59.51
2018-02-27T18:32:05.977Z,59.45
2018-02-27T18:34:33.442Z,59.84
2018-02-27T18:37:00.913Z,58.88
2018-02-27T18:39:29.293Z,59.76
2018-02-27T18:41:56.782Z,59.90
2018-02-27T18:44:24.246Z,61.18
2018-02-27T18:46:52.282Z,60.55
2018-02-27T18:49:19.774Z,61.00
2018-02-27T18:51:47.244Z,61.39
2018-02-27T18:54:14.957Z,60.47
2018-02-27T18:56:44.664Z,61.29
2018-02-27T18:59:12.125Z,62.04
2018-02-27T19:01:40.109Z,62.10
2018-02-27T19:04:07.582Z,62.38
2018-02-27T19:06:35.077Z,62.38
2018-02-27T19:09:02.812Z,62.15
2018-02-27T19:11:30.288Z,61.03
2018-02-27T19:13:57.777Z,60.60
2018-02-27T19:16:25.409Z,60.98
2018-02-27T19:18:52.886Z,63.25
2018-02-27T19:21:20.382Z,62.05
2018-02-27T19:23:48.179Z,62.06
2018-02-27T19:26:15.675Z,62.58
2018-02-27T19:28:43.383Z,63.45
2018-02-27T19:31:11.129Z,63.76
2018-02-27T19:33:38.598Z,63.59
2018-02-27T19:36:06.070Z,64.39
2018-02-27T19:38:33.858Z,64.59
2018-02-27T19:41:01.320Z,64.14
2018-02-27T19:43:28.782Z,64.58
2018-02-27T19:45:56.841Z,64.37
2018-02-27T19:48:24.303Z,65.00
2018-02-27T19:50:51.757Z,65.29
2018-02-27T19:53:19.537Z,64.87
2018-02-27T19:55:47.012Z,66.14
2018-02-27T19:58:15.144Z,64.75
2018-02-27T20:00:42.844Z,65.22
2018-02-27T20:03:10.312Z,65.83
2018-02-27T20:05:37.773Z,64.26
2018-02-27T20:08:05.833Z,64.57
2018-02-27T20:10:33.304Z,63.92
2018-02-27T20:13:00.780Z,63.99
2018-02-27T20:15:28.527Z,64.02
2018-02-27T20:18:01.599Z,65.05
2018-02-27T20:20:29.610Z,64.81
2018-02-27T20:23:02.736Z,64.31
2018-02-27T20:25:31.002Z,64.84
2018-02-27T20:27:58.496Z,64.51
2018-02-27T20:30:25.952Z,64.87
2018-02-27T20:32:53.948Z,64.21
2018-02-27T20:35:21.441Z,64.29
2018-02-27T20:37:48.909Z,64.22
2018-02-27T20:40:16.651Z,64.54
2018-02-27T20:42:44.138Z,64.66
2018-02-27T20:45:12.217Z,65.26
2018-02-27T20:47:40.652Z,64.81
2018-02-27T20:50:08.125Z,65.75
2018-02-27T20:52:35.583Z,64.56
2018-02-27T20:55:03.233Z,65.29
2018-02-27T20:57:31.039Z,64.17
2018-02-27T20:59:58.666Z,64.94
2018-02-27T21:02:26.532Z,64.19
2018-02-27T21:04:53.992Z,65.32
2018-02-27T21:07:21.750Z,64.61
2018-02-27T21:09:49.542Z,65.03
2018-02-27T21:12:17.005Z,64.41
2018-02-27T21:14:44.489Z,64.76
2018-02-27T21:17:12.895Z,65.00
2018-02-27T21:19:40.653Z,69.18
2018-02-27T21:22:08.112Z,66.92
2018-02-27T21:24:35.821Z,65.69
2018-02-27T21:27:03.281Z,66.04
2018-02-27T21:29:31.087Z,65.20
2018-02-27T21:31:58.833Z,64.87
2018-02-27T21:34:26.342Z,64.96
2018-02-27T21:36:53.776Z,64.75
2018-02-27T21:39:21.872Z,64.95
2018-02-27T21:41:49.370Z,65.62
2018-02-27T21:44:16.813Z,64.71
2018-02-27T21:46:44.805Z,64.82
2018-02-27T21:49:12.277Z,64.56
2018-02-27T21:51:39.740Z,64.09
2018-02-27T21:54:07.371Z,63.84
2018-02-27T21:56:34.830Z,64.07
2018-02-27T21:59:02.297Z,64.22
2018-02-27T22:01:30.496Z,63.89
2018-02-27T22:03:57.956Z,64.35
2018-02-27T22:06:25.422Z,64.56
2018-02-27T22:08:53.188Z,64.13
2018-02-27T22:11:20.666Z,64.67
2018-02-27T22:13:48.125Z,64.02
2018-02-27T22:16:15.873Z,64.99
2018-02-27T22:18:43.338Z,64.37
2018-02-27T22:21:10.811Z,64.57
2018-02-27T22:23:38.566Z,64.68
2018-02-27T22:26:06.934Z,64.43
2018-02-27T22:28:34.401Z,65.25
2018-02-27T22:31:02.409Z,65.10
2018-02-27T22:33:29.874Z,65.73
2018-02-27T22:35:57.333Z,66.01
2018-02-27T22:38:25.164Z,66.04
2018-02-27T22:40:52.634Z,65.81
2018-02-27T22:43:20.104Z,66.07
2018-02-27T22:45:47.839Z,65.70
2018-02-27T22:48:15.324Z,66.08
2018-02-27T22:50:42.781Z,65.87
2018-02-27T22:53:10.506Z,65.33
2018-02-27T22:55:37.963Z,66.53
2018-02-27T22:58:05.428Z,66.71
2018-02-27T23:00:40.281Z,66.17
2018-02-27T23:03:10.275Z,66.13
2018-02-27T23:05:37.757Z,66.15
2018-02-27T23:08:05.438Z,66.12
2018-02-27T23:10:32.899Z,66.93
2018-02-27T23:13:00.360Z,67.07
2018-02-27T23:15:28.732Z,66.48
2018-02-27T23:17:56.198Z,67.56
2018-02-27T23:20:23.662Z,66.90
2018-02-27T23:22:51.425Z,67.04
2018-02-27T23:28:30.476Z,67.51
2018-02-27T23:30:59.002Z,67.39
2018-02-27T23:33:38.711Z,67.98
2018-02-27T23:36:06.183Z,67.89
2018-02-27T23:38:33.645Z,67.67
2018-02-27T23:41:02.020Z,68.04
2018-02-27T23:43:29.490Z,68.39
2018-02-27T23:45:56.957Z,68.18
2018-02-27T23:48:24.603Z,68.71
2018-02-27T23:50:52.061Z,68.91
2018-02-27T23:53:19.525Z,68.71
2018-02-27T23:55:47.260Z,69.23
2018-02-27T23:58:14.748Z,69.46
